createdAt,value
2019-02-16T00:01:31.583Z,7.10
2019-02-16T00:04:00.278Z,7.10
2019-02-16T00:06:28.992Z,7.10
2019-02-16T00:08:57.703Z,7.00
2019-02-16T00:11:26.395Z,6.90
2019-02-16T00:13:55.259Z,6.80
2019-02-16T00:16:23.990Z,6.90
2019-02-16T00:18:52.800Z,6.80
2019-02-16T00:21:21.534Z,6.80
2019-02-16T00:23:50.348Z,6.80
2019-02-16T00:26:19.110Z,6.80
2019-02-16T00:28:47.917Z,6.80
2019-02-16T00:31:16.644Z,6.90
2019-02-16T00:33:45.363Z,6.80
2019-02-16T00:36:14.190Z,6.70
2019-02-16T00:38:44.412Z,6.70
2019-02-16T00:41:13.154Z,6.70
2019-02-16T00:43:41.993Z,6.70
2019-02-16T00:46:10.733Z,6.60
2019-02-16T00:48:39.738Z,6.60
2019-02-16T00:51:13.537Z,6.60
2019-02-16T00:53:39.964Z,6.60
2019-02-16T00:56:08.853Z,6.50
2019-02-16T00:58:37.575Z,6.50
2019-02-16T01:01:06.283Z,6.40
2019-02-16T01:03:35.055Z,6.40
2019-02-16T01:06:03.866Z,6.50
2019-02-16T01:08:32.594Z,6.50
2019-02-16T01:11:01.335Z,6.40
2019-02-16T01:13:30.169Z,6.30
2019-02-16T01:15:58.995Z,6.30
2019-02-16T01:18:27.799Z,6.30
2019-02-16T01:20:56.623Z,6.30
2019-02-16T01:23:25.341Z,6.20
2019-02-16T01:25:54.306Z,6.20
2019-02-16T01:28:23.052Z,6.20
2019-02-16T01:30:51.846Z,6.20
2019-02-16T01:33:20.687Z,6.10
2019-02-16T01:35:49.557Z,6.10
2019-02-16T01:38:18.387Z,6.00
2019-02-16T01:40:47.506Z,5.90
2019-02-16T01:43:16.347Z,5.90
2019-02-16T01:45:45.305Z,5.90
2019-02-16T01:48:14.066Z,5.80
2019-02-16T01:50:42.877Z,5.90
2019-02-16T01:53:11.634Z,5.80
2019-02-16T01:55:40.662Z,5.90
2019-02-16T01:58:09.415Z,5.90
2019-02-16T02:00:38.164Z,5.90
2019-02-16T02:03:07.097Z,5.90
2019-02-16T02:05:35.886Z,5.80
2019-02-16T02:08:04.712Z,5.70
2019-02-16T02:10:33.629Z,5.70
2019-02-16T02:13:03.079Z,5.60
2019-02-16T02:15:31.868Z,5.60
2019-02-16T02:18:00.686Z,5.50
2019-02-16T02:20:29.587Z,5.50
2019-02-16T02:22:58.654Z,5.50
2019-02-16T02:25:27.420Z,5.50
2019-02-16T02:27:56.577Z,5.60
2019-02-16T02:30:25.413Z,5.60
2019-02-16T02:32:54.298Z,5.60
2019-02-16T02:35:23.153Z,5.50
2019-02-16T02:37:52.015Z,5.50
2019-02-16T02:40:21.095Z,5.50
2019-02-16T02:42:49.979Z,5.50
2019-02-16T02:45:18.905Z,5.50
2019-02-16T02:47:47.791Z,5.50
2019-02-16T02:50:16.605Z,5.40
2019-02-16T02:52:45.530Z,5.50
2019-02-16T02:55:14.252Z,5.50
2019-02-16T02:57:43.115Z,5.50
2019-02-16T03:00:12.006Z,5.40
2019-02-16T03:02:40.768Z,5.30
2019-02-16T03:05:09.852Z,5.30
2019-02-16T03:07:38.657Z,5.30
2019-02-16T03:10:07.544Z,5.30
2019-02-16T03:12:36.472Z,5.20
2019-02-16T03:15:05.631Z,5.20
2019-02-16T03:17:34.366Z,5.10
2019-02-16T03:20:03.258Z,5.20
2019-02-16T03:23:22.813Z,5.10
2019-02-16T03:25:58.252Z,5.10
2019-02-16T03:28:36.310Z,5.10
2019-02-16T03:31:45.613Z,5.10
2019-02-16T03:34:39.068Z,5.00
2019-02-16T03:37:38.545Z,5.00
2019-02-16T03:40:07.738Z,4.90
2019-02-16T03:42:36.635Z,5.00
2019-02-16T03:45:05.589Z,5.00
2019-02-16T03:47:34.503Z,5.00
2019-02-16T03:50:03.241Z,4.90
2019-02-16T03:52:32.047Z,4.90
2019-02-16T03:55:00.798Z,4.90
2019-02-16T03:57:29.683Z,4.90
2019-02-16T03:59:58.411Z,4.80
2019-02-16T04:02:27.252Z,4.80
2019-02-16T04:04:56.119Z,4.80
2019-02-16T04:07:24.986Z,4.80
2019-02-16T04:09:53.749Z,4.70
2019-02-16T04:12:22.533Z,4.80
2019-02-16T04:14:51.339Z,4.80
2019-02-16T04:17:20.026Z,4.80
2019-02-16T04:19:48.775Z,4.90
2019-02-16T04:22:24.741Z,4.80
2019-02-16T04:24:48.080Z,4.80
2019-02-16T04:27:16.778Z,4.80
2019-02-16T04:29:45.525Z,4.80
2019-02-16T04:32:14.241Z,4.70
2019-02-16T04:34:43.227Z,4.60
2019-02-16T04:37:11.942Z,4.60
2019-02-16T04:39:40.640Z,4.50
2019-02-16T04:42:09.415Z,4.50
2019-02-16T04:44:38.172Z,4.50
2019-02-16T04:47:06.955Z,4.50
2019-02-16T04:49:35.816Z,4.40
2019-02-16T04:52:04.517Z,4.40
2019-02-16T04:54:33.278Z,4.40
2019-02-16T04:57:02.036Z,4.40
2019-02-16T04:59:31.164Z,4.40
2019-02-16T05:01:59.906Z,4.30
2019-02-16T05:04:28.708Z,4.30
2019-02-16T05:06:57.483Z,4.30
2019-02-16T05:09:26.428Z,4.20
2019-02-16T05:11:55.150Z,4.20
2019-02-16T05:14:24.014Z,4.20
2019-02-16T05:16:52.789Z,4.10
2019-02-16T05:19:21.643Z,4.10
2019-02-16T05:21:50.405Z,4.10
2019-02-16T05:24:19.129Z,4.00
2019-02-16T05:26:48.008Z,4.00
2019-02-16T05:29:16.839Z,4.00
2019-02-16T05:31:45.595Z,4.00
2019-02-16T05:34:14.397Z,3.90
2019-02-16T05:36:43.409Z,3.90
2019-02-16T05:39:12.396Z,3.90
2019-02-16T05:41:41.278Z,3.90
2019-02-16T05:44:10.060Z,3.90
2019-02-16T05:46:39.037Z,3.80
2019-02-16T05:49:07.799Z,3.80
2019-02-16T05:51:36.538Z,3.80
2019-02-16T05:54:05.246Z,3.80
2019-02-16T05:56:34.006Z,3.80
2019-02-16T05:59:02.779Z,3.70
2019-02-16T06:01:31.552Z,3.80
2019-02-16T06:04:00.311Z,3.70
2019-02-16T06:06:29.162Z,3.70
2019-02-16T06:08:57.937Z,3.60
2019-02-16T06:11:26.732Z,3.70
2019-02-16T06:13:55.542Z,3.60
2019-02-16T06:16:24.371Z,3.60
2019-02-16T06:18:53.347Z,3.60
2019-02-16T06:21:22.049Z,3.60
2019-02-16T06:23:50.930Z,3.70
2019-02-16T06:26:19.722Z,3.60
2019-02-16T06:28:48.473Z,3.60
2019-02-16T06:31:17.159Z,3.60
2019-02-16T06:33:46.113Z,3.60
2019-02-16T06:36:39.927Z,3.60
2019-02-16T06:39:08.799Z,3.60
2019-02-16T06:41:37.579Z,3.60
2019-02-16T06:44:06.296Z,3.60
2019-02-16T06:46:35.113Z,3.60
2019-02-16T06:49:03.868Z,3.50
2019-02-16T06:51:32.754Z,3.50
2019-02-16T06:54:01.642Z,3.60
2019-02-16T06:56:53.972Z,3.60
2019-02-16T06:59:22.869Z,3.60
2019-02-16T07:01:51.839Z,3.70
2019-02-16T07:04:20.692Z,3.70
2019-02-16T07:06:49.686Z,3.70
2019-02-16T07:09:18.517Z,3.70
2019-02-16T07:11:47.366Z,3.70
2019-02-16T07:14:16.420Z,3.80
2019-02-16T07:17:10.245Z,3.90
2019-02-16T07:19:49.483Z,3.90
2019-02-16T07:22:18.278Z,3.90
2019-02-16T07:24:47.286Z,3.90
2019-02-16T07:27:16.182Z,4.00
2019-02-16T07:29:45.131Z,4.00
2019-02-16T07:32:14.216Z,4.10
2019-02-16T07:34:43.179Z,4.10
2019-02-16T07:37:11.950Z,4.20
2019-02-16T07:39:40.682Z,4.20
2019-02-16T07:42:09.493Z,4.20
2019-02-16T07:44:58.215Z,4.30
2019-02-16T07:47:38.441Z,4.40
2019-02-16T07:50:36.132Z,4.50
2019-02-16T07:53:11.823Z,4.50
2019-02-16T07:56:05.825Z,4.70
2019-02-16T07:58:39.682Z,4.80
2019-02-16T08:01:26.215Z,4.90
2019-02-16T08:04:12.835Z,5.00
2019-02-16T08:07:06.698Z,5.00
2019-02-16T08:09:54.584Z,5.20
2019-02-16T08:12:30.035Z,5.30
2019-02-16T08:15:07.053Z,5.40
2019-02-16T08:18:05.287Z,5.40
2019-02-16T08:20:42.527Z,5.60
2019-02-16T08:23:17.476Z,5.80
2019-02-16T08:26:14.224Z,5.90
2019-02-16T08:29:05.059Z,5.90
2019-02-16T08:31:55.746Z,6.00
2019-02-16T08:34:36.405Z,6.10
2019-02-16T08:37:12.155Z,6.30
2019-02-16T08:40:03.003Z,6.40
2019-02-16T08:42:44.607Z,6.50
2019-02-16T08:45:30.498Z,6.60
2019-02-16T08:48:24.317Z,6.70
2019-02-16T08:51:11.006Z,6.90
2019-02-16T08:53:50.062Z,7.00
2019-02-16T08:56:34.378Z,7.20
2019-02-16T08:59:20.841Z,7.30
2019-02-16T09:02:09.028Z,7.40
2019-02-16T09:05:05.739Z,7.60
2019-02-16T09:07:53.542Z,7.80
2019-02-16T09:10:31.396Z,7.90
2019-02-16T09:13:17.786Z,8.00
2019-02-16T09:16:20.888Z,8.10
2019-02-16T09:19:15.747Z,8.20
2019-02-16T09:22:08.875Z,8.40
2019-02-16T09:24:55.569Z,8.50
2019-02-16T09:27:37.780Z,8.70
2019-02-16T09:30:34.299Z,8.80
2019-02-16T09:33:25.519Z,8.90
2019-02-16T09:36:19.312Z,9.00
2019-02-16T09:38:59.865Z,9.00
2019-02-16T09:41:34.012Z,9.10
2019-02-16T09:44:27.890Z,9.20
2019-02-16T09:47:07.730Z,9.30
2019-02-16T09:49:44.346Z,9.40
2019-02-16T09:52:34.927Z,9.50
2019-02-16T09:55:19.266Z,9.60
2019-02-16T10:04:36.653Z,9.80
2019-02-16T10:07:19.250Z,9.90
2019-02-16T10:10:10.199Z,10.10
2019-02-16T10:12:53.230Z,10.20
2019-02-16T10:19:11.023Z,10.40
2019-02-16T10:21:57.405Z,10.60
2019-02-16T10:25:00.553Z,10.60
2019-02-16T10:27:36.584Z,10.60
2019-02-16T10:30:23.088Z,10.60
2019-02-16T10:33:08.295Z,10.70
2019-02-16T10:35:56.202Z,10.80
2019-02-16T10:38:42.629Z,10.90
2019-02-16T10:41:28.884Z,11.10
2019-02-16T10:44:16.737Z,11.20
2019-02-16T10:47:04.872Z,11.20
2019-02-16T10:49:52.914Z,11.30
2019-02-16T10:52:43.493Z,11.30
2019-02-16T10:55:41.663Z,11.40
2019-02-16T10:58:16.244Z,11.50
2019-02-16T11:01:10.146Z,11.60
2019-02-16T11:04:02.643Z,11.60
2019-02-16T11:06:46.064Z,11.60
2019-02-16T11:09:45.769Z,11.70
2019-02-16T11:12:36.225Z,11.70
2019-02-16T11:15:40.282Z,11.70
2019-02-16T11:18:26.814Z,11.80
2019-02-16T11:21:13.482Z,11.90
2019-02-16T11:23:55.034Z,11.90
2019-02-16T11:26:41.452Z,12.10
2019-02-16T11:29:28.112Z,12.10
2019-02-16T11:32:19.082Z,12.20
2019-02-16T11:34:53.613Z,12.30
2019-02-16T11:37:41.430Z,12.30
2019-02-16T11:40:19.382Z,12.40
2019-02-16T11:42:57.439Z,12.40
2019-02-16T11:45:37.276Z,12.40
2019-02-16T11:48:30.642Z,12.40
2019-02-16T11:51:23.828Z,12.50
2019-02-16T11:54:17.529Z,12.60
2019-02-16T11:57:04.063Z,12.70
2019-02-16T11:59:52.819Z,12.80
2019-02-16T12:02:39.459Z,12.80
2019-02-16T12:05:14.359Z,12.80
2019-02-16T12:08:02.170Z,12.70
2019-02-16T12:10:40.989Z,12.90
2019-02-16T12:13:27.240Z,13.00
2019-02-16T12:16:12.680Z,12.90
2019-02-16T12:19:00.522Z,13.00
2019-02-16T12:21:53.897Z,13.20
2019-02-16T12:25:05.103Z,13.20
2019-02-16T12:27:35.344Z,13.30
2019-02-16T12:30:22.103Z,13.30
2019-02-16T12:33:12.584Z,13.40
2019-02-16T12:35:59.025Z,13.40
2019-02-16T12:38:45.580Z,13.50
2019-02-16T12:41:36.542Z,13.50
2019-02-16T12:44:30.331Z,13.60
2019-02-16T12:47:27.072Z,13.60
2019-02-16T12:50:16.962Z,13.70
2019-02-16T12:53:08.004Z,13.70
2019-02-16T12:55:54.495Z,13.80
2019-02-16T12:58:29.909Z,13.80
2019-02-16T13:01:05.651Z,14.00
2019-02-16T13:04:05.430Z,14.00
2019-02-16T13:06:53.373Z,14.00
2019-02-16T13:09:40.372Z,14.10
2019-02-16T13:12:17.178Z,14.20
2019-02-16T13:15:02.610Z,14.20
2019-02-16T13:17:37.403Z,14.20
2019-02-16T13:20:17.500Z,14.30
2019-02-16T13:23:06.931Z,14.40
2019-02-16T13:25:43.836Z,14.40
2019-02-16T13:28:24.355Z,14.40
2019-02-16T13:31:08.210Z,14.40
2019-02-16T13:33:48.084Z,14.50
2019-02-16T13:36:42.158Z,14.60
2019-02-16T13:39:28.727Z,14.60
2019-02-16T13:42:02.352Z,14.50
2019-02-16T13:44:53.287Z,14.50
2019-02-16T13:47:27.803Z,14.50
2019-02-16T13:50:20.326Z,14.60
2019-02-16T13:53:14.390Z,14.60
2019-02-16T13:56:04.738Z,14.60
2019-02-16T13:58:40.135Z,14.60
2019-02-16T14:01:17.605Z,14.60
2019-02-16T14:04:00.987Z,14.70
2019-02-16T14:06:39.310Z,14.70
2019-02-16T14:09:19.991Z,14.70
2019-02-16T14:12:11.618Z,14.70
2019-02-16T14:14:46.623Z,14.80
2019-02-16T14:17:29.921Z,14.80
2019-02-16T14:19:58.769Z,14.80
2019-02-16T14:22:27.505Z,14.90
2019-02-16T14:24:58.661Z,14.90
2019-02-16T14:27:27.482Z,14.90
2019-02-16T14:29:56.265Z,14.90
2019-02-16T14:32:25.027Z,14.90
2019-02-16T14:34:54.218Z,14.90
2019-02-16T14:37:38.143Z,14.80
2019-02-16T14:40:07.192Z,14.80
2019-02-16T14:42:35.905Z,14.80
2019-02-16T14:45:05.021Z,14.90
2019-02-16T14:47:33.777Z,15.00
2019-02-16T14:50:02.612Z,15.10
2019-02-16T14:52:31.309Z,15.10
2019-02-16T14:55:00.309Z,15.10
2019-02-16T14:57:29.085Z,14.90
2019-02-16T14:59:57.798Z,15.00
2019-02-16T15:02:26.494Z,14.90
2019-02-16T15:04:55.332Z,15.00
2019-02-16T15:07:24.077Z,14.90
2019-02-16T15:09:53.046Z,14.90
2019-02-16T15:12:21.809Z,14.90
2019-02-16T15:14:50.589Z,14.90
2019-02-16T15:17:19.616Z,14.90
2019-02-16T15:19:54.213Z,14.90
2019-02-16T15:22:22.959Z,14.80
2019-02-16T15:24:51.679Z,14.70
2019-02-16T15:27:21.675Z,14.70
2019-02-16T15:29:50.437Z,14.70
2019-02-16T15:32:19.223Z,14.70
2019-02-16T15:34:48.023Z,14.60
2019-02-16T15:37:16.845Z,14.50
2019-02-16T15:39:45.750Z,14.50
2019-02-16T15:42:14.556Z,14.50
2019-02-16T15:44:43.329Z,14.50
2019-02-16T15:47:12.116Z,14.40
2019-02-16T15:49:41.197Z,14.30
2019-02-16T15:52:10.027Z,14.30
2019-02-16T15:54:38.941Z,14.30
2019-02-16T15:57:07.697Z,14.20
2019-02-16T15:59:36.531Z,14.20
2019-02-16T16:02:05.501Z,14.10
2019-02-16T16:04:34.411Z,14.10
2019-02-16T16:07:04.925Z,14.00
2019-02-16T16:09:43.538Z,13.90
2019-02-16T16:12:49.561Z,13.90
2019-02-16T16:15:28.838Z,13.80
2019-02-16T16:18:16.697Z,13.70
2019-02-16T16:21:19.725Z,13.60
2019-02-16T16:24:05.844Z,13.50
2019-02-16T16:27:05.929Z,13.40
2019-02-16T16:30:11.534Z,13.40
2019-02-16T16:33:02.621Z,13.30
2019-02-16T16:35:50.597Z,13.20
2019-02-16T16:38:47.379Z,13.20
2019-02-16T16:41:35.304Z,13.10
2019-02-16T16:44:26.136Z,12.90
2019-02-16T16:47:12.631Z,12.80
2019-02-16T16:50:18.530Z,12.70
2019-02-16T16:52:57.380Z,12.70
2019-02-16T16:55:44.482Z,12.60
2019-02-16T16:58:29.534Z,12.50
2019-02-16T17:01:10.440Z,12.40
2019-02-16T17:05:00.369Z,12.40
2019-02-16T17:07:59.710Z,12.40
2019-02-16T17:11:05.661Z,12.20
2019-02-16T17:13:46.045Z,12.20
2019-02-16T17:16:26.157Z,12.10
2019-02-16T17:19:01.760Z,12.00
2019-02-16T17:21:55.446Z,12.00
2019-02-16T17:24:58.312Z,11.90
2019-02-16T17:27:47.166Z,11.90
2019-02-16T17:30:53.218Z,11.80
2019-02-16T17:33:38.712Z,11.80
2019-02-16T17:36:28.744Z,11.70
2019-02-16T17:39:07.347Z,11.70
2019-02-16T17:42:01.293Z,11.70
2019-02-16T17:44:38.113Z,11.70
2019-02-16T17:47:32.045Z,11.70
2019-02-16T17:50:05.644Z,11.70
2019-02-16T17:52:54.232Z,11.60
2019-02-16T17:55:54.256Z,11.50
2019-02-16T17:58:30.830Z,11.50
2019-02-16T18:01:21.365Z,11.40
2019-02-16T18:04:12.365Z,11.40
2019-02-16T18:07:01.456Z,11.30
2019-02-16T18:09:40.794Z,11.30
2019-02-16T18:12:26.958Z,11.20
2019-02-16T18:15:14.874Z,11.10
2019-02-16T18:17:56.770Z,11.10
2019-02-16T18:20:44.632Z,11.00
2019-02-16T18:23:31.029Z,11.00
2019-02-16T18:26:34.041Z,10.90
2019-02-16T18:29:37.078Z,10.90
2019-02-16T18:32:31.333Z,10.90
2019-02-16T18:35:35.829Z,10.80
2019-02-16T18:38:14.051Z,10.80
2019-02-16T18:41:00.783Z,10.70
2019-02-16T18:43:45.571Z,10.70
2019-02-16T18:46:29.529Z,10.60
2019-02-16T18:49:22.701Z,10.50
2019-02-16T18:52:05.868Z,10.60
2019-02-16T18:54:45.188Z,10.50
2019-02-16T18:57:39.545Z,10.40
2019-02-16T19:00:19.235Z,10.30
2019-02-16T19:02:55.911Z,10.20
2019-02-16T19:05:43.852Z,10.10
2019-02-16T19:08:21.915Z,10.10
2019-02-16T19:11:08.520Z,10.00
2019-02-16T19:13:54.754Z,10.00
2019-02-16T19:16:41.389Z,9.90
2019-02-16T19:19:34.211Z,9.80
2019-02-16T19:22:19.011Z,9.70
2019-02-16T19:25:07.021Z,9.70
2019-02-16T19:27:57.954Z,9.70
2019-02-16T19:30:44.546Z,9.60
2019-02-16T19:33:28.763Z,9.70
2019-02-16T19:36:06.319Z,9.70
2019-02-16T19:38:49.061Z,9.60
2019-02-16T19:41:49.310Z,9.50
2019-02-16T19:44:34.184Z,9.40
2019-02-16T19:47:18.673Z,9.30
2019-02-16T19:50:05.244Z,9.30
2019-02-16T19:52:46.761Z,9.20
2019-02-16T19:55:36.880Z,9.20
2019-02-16T19:58:23.211Z,9.10
2019-02-16T20:01:11.108Z,9.00
2019-02-16T20:04:05.285Z,8.90
2019-02-16T20:06:45.612Z,8.90
2019-02-16T20:09:17.175Z,9.00
2019-02-16T20:12:14.171Z,9.10
2019-02-16T20:15:16.915Z,9.10
2019-02-16T20:17:59.462Z,9.10
2019-02-16T20:20:53.448Z,9.10
2019-02-16T20:23:48.577Z,9.00
2019-02-16T20:26:29.958Z,8.90
2019-02-16T20:29:23.774Z,8.80
2019-02-16T20:32:10.461Z,8.70
2019-02-16T20:34:52.591Z,8.70
2019-02-16T20:37:43.462Z,8.60
2019-02-16T20:40:23.650Z,8.60
2019-02-16T20:43:14.279Z,8.50
2019-02-16T20:45:58.567Z,8.60
2019-02-16T20:48:55.440Z,8.60
2019-02-16T20:51:42.272Z,8.50
2019-02-16T20:54:33.069Z,8.50
2019-02-16T20:57:19.333Z,8.40
2019-02-16T21:00:22.433Z,8.30
2019-02-16T21:03:06.192Z,8.20
2019-02-16T21:05:57.065Z,8.20
2019-02-16T21:08:54.566Z,8.10
2019-02-16T21:11:39.980Z,8.00
2019-02-16T21:14:39.815Z,8.00
2019-02-16T21:17:26.092Z,8.10
2019-02-16T21:20:01.338Z,8.20
2019-02-16T21:22:51.966Z,8.20
2019-02-16T21:25:51.656Z,8.20
2019-02-16T21:28:29.987Z,8.20
2019-02-16T21:31:09.588Z,8.20
2019-02-16T21:34:15.276Z,8.30
2019-02-16T21:36:55.078Z,8.40
2019-02-16T21:39:47.348Z,8.40
2019-02-16T21:42:33.384Z,8.40
2019-02-16T21:45:19.958Z,8.20
2019-02-16T21:48:06.372Z,8.10
2019-02-16T21:51:00.313Z,8.10
2019-02-16T21:54:06.428Z,8.00
2019-02-16T21:56:52.360Z,8.00
2019-02-16T21:59:33.567Z,8.00
2019-02-16T22:02:10.682Z,8.00
2019-02-16T22:04:55.244Z,7.80
2019-02-16T22:07:39.236Z,7.70
2019-02-16T22:10:16.886Z,7.60
2019-02-16T22:13:07.546Z,7.50
2019-02-16T22:15:36.288Z,7.40
2019-02-16T22:18:05.233Z,7.30
2019-02-16T22:20:34.065Z,7.30
2019-02-16T22:23:05.060Z,7.30
2019-02-16T22:25:33.834Z,7.20
2019-02-16T22:28:02.673Z,7.10
2019-02-16T22:30:31.409Z,7.00
2019-02-16T22:33:00.272Z,7.00
2019-02-16T22:35:29.019Z,7.10
2019-02-16T22:37:57.857Z,7.00
2019-02-16T22:40:26.664Z,6.90
2019-02-16T22:42:55.467Z,6.90
2019-02-16T22:45:24.311Z,6.80
2019-02-16T22:47:53.024Z,6.80
2019-02-16T22:50:21.783Z,6.80
2019-02-16T22:52:50.514Z,6.80
2019-02-16T22:55:19.260Z,6.70
2019-02-16T22:57:48.023Z,6.70
2019-02-16T23:00:27.472Z,6.60
2019-02-16T23:02:56.459Z,6.60
2019-02-16T23:05:25.255Z,6.70
2019-02-16T23:07:53.977Z,6.70
2019-02-16T23:10:22.786Z,6.70
2019-02-16T23:12:51.575Z,6.60
2019-02-16T23:15:20.539Z,6.60
2019-02-16T23:17:49.265Z,6.60
2019-02-16T23:20:18.004Z,6.60
2019-02-16T23:22:46.726Z,6.50
2019-02-16T23:25:15.514Z,6.60
2019-02-16T23:27:44.891Z,6.50
2019-02-16T23:30:13.832Z,6.50
2019-02-16T23:32:42.727Z,6.50
2019-02-16T23:35:11.533Z,6.60
2019-02-16T23:37:40.268Z,6.50
2019-02-16T23:40:09.102Z,6.50
2019-02-16T23:42:38.672Z,6.50
2019-02-16T23:45:07.664Z,6.50
2019-02-16T23:47:36.587Z,6.40
2019-02-16T23:50:05.729Z,6.40
2019-02-16T23:52:34.776Z,6.30
2019-02-16T23:55:05.309Z,6.30
2019-02-16T23:57:34.038Z,6.30
